sensor_id;sensor_type;location;lat;lon;timestamp;P1;durP1;ratioP1;P2;durP2;ratioP2
76310;SDS011;65120;59.304;18.294;2022-12-05T00:01:15;3.72;;;1.88;;
76310;SDS011;65120;59.304;18.294;2022-12-05T00:03:44;2.22;;;1.35;;
76310;SDS011;65120;59.304;18.294;2022-12-05T00:06:12;5.88;;;1.55;;
76310;SDS011;65120;59.304;18.294;2022-12-05T00:08:40;3.38;;;1.75;;
76310;SDS011;65120;59.304;18.294;2022-12-05T00:11:11;4.97;;;1.35;;
76310;SDS011;65120;59.304;18.294;2022-12-05T00:13:38;4.05;;;1.52;;
76310;SDS011;65120;59.304;18.294;2022-12-05T00:16:06;1.40;;;1.20;;
76310;SDS011;65120;59.304;18.294;2022-12-05T00:18:34;2.15;;;1.25;;
76310;SDS011;65120;59.304;18.294;2022-12-05T00:21:01;2.85;;;1.15;;
76310;SDS011;65120;59.304;18.294;2022-12-05T00:23:27;2.22;;;1.55;;
76310;SDS011;65120;59.304;18.294;2022-12-05T00:25:56;3.15;;;1.25;;
76310;SDS011;65120;59.304;18.294;2022-12-05T00:28:22;2.13;;;1.30;;
76310;SDS011;65120;59.304;18.294;2022-12-05T00:30:49;3.50;;;1.85;;
76310;SDS011;65120;59.304;18.294;2022-12-05T00:33:16;3.67;;;1.65;;
76310;SDS011;65120;59.304;18.294;2022-12-05T00:35:43;4.28;;;1.77;;
76310;SDS011;65120;59.304;18.294;2022-12-05T00:38:10;1.77;;;1.38;;
76310;SDS011;65120;59.304;18.294;2022-12-05T00:40:36;2.45;;;1.25;;
76310;SDS011;65120;59.304;18.294;2022-12-05T00:43:04;2.50;;;1.23;;
76310;SDS011;65120;59.304;18.294;2022-12-05T00:45:32;3.25;;;1.30;;
76310;SDS011;65120;59.304;18.294;2022-12-05T00:47:59;2.90;;;2.30;;
76310;SDS011;65120;59.304;18.294;2022-12-05T00:50:26;1.40;;;0.80;;
76310;SDS011;65120;59.304;18.294;2022-12-05T00:52:52;3.00;;;0.90;;
76310;SDS011;65120;59.304;18.294;2022-12-05T00:55:19;0.93;;;0.60;;
76310;SDS011;65120;59.304;18.294;2022-12-05T00:57:46;1.15;;;0.70;;
76310;SDS011;65120;59.304;18.294;2022-12-05T01:00:20;1.33;;;0.70;;
76310;SDS011;65120;59.304;18.294;2022-12-05T01:02:47;2.30;;;1.15;;
76310;SDS011;65120;59.304;18.294;2022-12-05T01:05:14;2.47;;;0.77;;
76310;SDS011;65120;59.304;18.294;2022-12-05T01:07:41;4.25;;;0.80;;
76310;SDS011;65120;59.304;18.294;2022-12-05T01:10:07;2.47;;;0.80;;
76310;SDS011;65120;59.304;18.294;2022-12-05T01:12:34;24.67;;;1.58;;
76310;SDS011;65120;59.304;18.294;2022-12-05T01:15:01;1.42;;;0.90;;
76310;SDS011;65120;59.304;18.294;2022-12-05T01:17:30;5.25;;;1.17;;
76310;SDS011;65120;59.304;18.294;2022-12-05T01:19:59;1.85;;;0.95;;
76310;SDS011;65120;59.304;18.294;2022-12-05T01:22:26;1.63;;;0.98;;
76310;SDS011;65120;59.304;18.294;2022-12-05T01:24:53;1.60;;;0.77;;
76310;SDS011;65120;59.304;18.294;2022-12-05T01:27:19;3.08;;;0.80;;
76310;SDS011;65120;59.304;18.294;2022-12-05T01:29:46;1.85;;;0.95;;
76310;SDS011;65120;59.304;18.294;2022-12-05T01:32:13;1.65;;;0.98;;
76310;SDS011;65120;59.304;18.294;2022-12-05T01:34:41;8.38;;;1.10;;
76310;SDS011;65120;59.304;18.294;2022-12-05T01:37:08;1.38;;;0.50;;
76310;SDS011;65120;59.304;18.294;2022-12-05T01:39:35;2.00;;;0.80;;
76310;SDS011;65120;59.304;18.294;2022-12-05T01:42:03;3.25;;;1.10;;
76310;SDS011;65120;59.304;18.294;2022-12-05T01:47:28;4.72;;;0.80;;
76310;SDS011;65120;59.304;18.294;2022-12-05T01:49:59;1.58;;;0.60;;
76310;SDS011;65120;59.304;18.294;2022-12-05T01:52:27;1.52;;;0.80;;
76310;SDS011;65120;59.304;18.294;2022-12-05T01:54:57;2.67;;;1.42;;
76310;SDS011;65120;59.304;18.294;2022-12-05T01:57:28;5.45;;;0.90;;
76310;SDS011;65120;59.304;18.294;2022-12-05T01:59:57;1.80;;;0.90;;
76310;SDS011;65120;59.304;18.294;2022-12-05T02:02:29;1.10;;;0.60;;
76310;SDS011;65120;59.304;18.294;2022-12-05T02:05:01;1.63;;;0.77;;
76310;SDS011;65120;59.304;18.294;2022-12-05T02:07:31;1.67;;;1.00;;
76310;SDS011;65120;59.304;18.294;2022-12-05T02:09:58;1.42;;;0.80;;
76310;SDS011;65120;59.304;18.294;2022-12-05T02:12:25;3.63;;;0.70;;
76310;SDS011;65120;59.304;18.294;2022-12-05T02:14:58;1.42;;;0.73;;
76310;SDS011;65120;59.304;18.294;2022-12-05T02:17:36;1.65;;;0.60;;
76310;SDS011;65120;59.304;18.294;2022-12-05T02:20:20;5.75;;;0.80;;
76310;SDS011;65120;59.304;18.294;2022-12-05T02:23:24;1.23;;;0.90;;
76310;SDS011;65120;59.304;18.294;2022-12-05T02:29:28;1.80;;;0.95;;
76310;SDS011;65120;59.304;18.294;2022-12-05T02:32:18;1.10;;;0.80;;
76310;SDS011;65120;59.304;18.294;2022-12-05T02:34:56;2.03;;;0.68;;
76310;SDS011;65120;59.304;18.294;2022-12-05T02:37:28;1.42;;;0.80;;
76310;SDS011;65120;59.304;18.294;2022-12-05T02:40:04;1.45;;;0.85;;
76310;SDS011;65120;59.304;18.294;2022-12-05T02:42:37;1.70;;;1.00;;
76310;SDS011;65120;59.304;18.294;2022-12-05T02:45:12;1.42;;;0.70;;
76310;SDS011;65120;59.304;18.294;2022-12-05T02:47:44;8.38;;;0.70;;
76310;SDS011;65120;59.304;18.294;2022-12-05T02:50:13;1.90;;;0.80;;
76310;SDS011;65120;59.304;18.294;2022-12-05T02:52:44;3.88;;;0.90;;
76310;SDS011;65120;59.304;18.294;2022-12-05T02:55:14;3.63;;;0.80;;
76310;SDS011;65120;59.304;18.294;2022-12-05T02:57:44;1.70;;;0.90;;
76310;SDS011;65120;59.304;18.294;2022-12-05T03:00:16;2.55;;;0.98;;
76310;SDS011;65120;59.304;18.294;2022-12-05T03:02:46;1.30;;;0.73;;
76310;SDS011;65120;59.304;18.294;2022-12-05T03:05:16;1.63;;;1.02;;
76310;SDS011;65120;59.304;18.294;2022-12-05T03:07:48;1.13;;;0.60;;
76310;SDS011;65120;59.304;18.294;2022-12-05T03:10:20;1.05;;;0.88;;
76310;SDS011;65120;59.304;18.294;2022-12-05T03:12:51;0.88;;;0.63;;
76310;SDS011;65120;59.304;18.294;2022-12-05T03:15:22;1.00;;;0.63;;
76310;SDS011;65120;59.304;18.294;2022-12-05T03:17:56;1.48;;;1.23;;
76310;SDS011;65120;59.304;18.294;2022-12-05T03:20:30;1.70;;;1.13;;
76310;SDS011;65120;59.304;18.294;2022-12-05T03:23:00;2.03;;;0.82;;
76310;SDS011;65120;59.304;18.294;2022-12-05T03:25:34;1.55;;;0.80;;
76310;SDS011;65120;59.304;18.294;2022-12-05T03:28:07;1.60;;;0.98;;
76310;SDS011;65120;59.304;18.294;2022-12-05T03:30:44;1.50;;;0.80;;
76310;SDS011;65120;59.304;18.294;2022-12-05T03:33:16;2.15;;;0.73;;
76310;SDS011;65120;59.304;18.294;2022-12-05T03:35:49;0.95;;;0.52;;
76310;SDS011;65120;59.304;18.294;2022-12-05T03:38:25;2.08;;;0.88;;
76310;SDS011;65120;59.304;18.294;2022-12-05T03:40:59;2.00;;;1.08;;
76310;SDS011;65120;59.304;18.294;2022-12-05T03:43:33;1.73;;;0.90;;
76310;SDS011;65120;59.304;18.294;2022-12-05T03:46:05;1.35;;;0.80;;
76310;SDS011;65120;59.304;18.294;2022-12-05T03:48:39;1.90;;;0.77;;
76310;SDS011;65120;59.304;18.294;2022-12-05T03:51:15;2.05;;;0.93;;
76310;SDS011;65120;59.304;18.294;2022-12-05T03:53:47;2.33;;;1.00;;
76310;SDS011;65120;59.304;18.294;2022-12-05T03:56:18;2.55;;;1.02;;
76310;SDS011;65120;59.304;18.294;2022-12-05T03:58:51;1.92;;;1.27;;
76310;SDS011;65120;59.304;18.294;2022-12-05T04:01:21;2.03;;;1.08;;
76310;SDS011;65120;59.304;18.294;2022-12-05T04:03:54;1.92;;;1.00;;
76310;SDS011;65120;59.304;18.294;2022-12-05T04:06:23;1.77;;;0.80;;
76310;SDS011;65120;59.304;18.294;2022-12-05T04:08:56;2.55;;;1.23;;
76310;SDS011;65120;59.304;18.294;2022-12-05T04:11:26;2.20;;;0.90;;
76310;SDS011;65120;59.304;18.294;2022-12-05T04:13:58;1.52;;;0.80;;
76310;SDS011;65120;59.304;18.294;2022-12-05T04:16:31;1.40;;;1.10;;
76310;SDS011;65120;59.304;18.294;2022-12-05T04:19:22;1.27;;;0.75;;
76310;SDS011;65120;59.304;18.294;2022-12-05T04:21:52;2.22;;;1.23;;
76310;SDS011;65120;59.304;18.294;2022-12-05T04:24:20;1.70;;;0.90;;
76310;SDS011;65120;59.304;18.294;2022-12-05T04:27:10;1.38;;;0.77;;
76310;SDS011;65120;59.304;18.294;2022-12-05T04:29:56;2.38;;;1.00;;
76310;SDS011;65120;59.304;18.294;2022-12-05T04:32:29;1.50;;;0.70;;
76310;SDS011;65120;59.304;18.294;2022-12-05T04:35:07;1.23;;;1.08;;
76310;SDS011;65120;59.304;18.294;2022-12-05T04:37:39;1.45;;;0.70;;
76310;SDS011;65120;59.304;18.294;2022-12-05T04:40:11;2.55;;;0.90;;
76310;SDS011;65120;59.304;18.294;2022-12-05T04:42:43;1.58;;;1.00;;
76310;SDS011;65120;59.304;18.294;2022-12-05T04:45:13;2.50;;;0.80;;
76310;SDS011;65120;59.304;18.294;2022-12-05T04:47:43;1.52;;;0.90;;
76310;SDS011;65120;59.304;18.294;2022-12-05T04:50:17;1.65;;;0.75;;
76310;SDS011;65120;59.304;18.294;2022-12-05T04:52:47;2.17;;;0.85;;
76310;SDS011;65120;59.304;18.294;2022-12-05T04:55:18;2.75;;;1.23;;
76310;SDS011;65120;59.304;18.294;2022-12-05T04:57:51;1.33;;;0.82;;
76310;SDS011;65120;59.304;18.294;2022-12-05T05:00:29;1.30;;;1.00;;
76310;SDS011;65120;59.304;18.294;2022-12-05T05:02:58;2.20;;;0.80;;
76310;SDS011;65120;59.304;18.294;2022-12-05T05:05:31;2.13;;;1.00;;
76310;SDS011;65120;59.304;18.294;2022-12-05T05:08:00;2.35;;;0.90;;
76310;SDS011;65120;59.304;18.294;2022-12-05T05:10:30;1.60;;;0.75;;
76310;SDS011;65120;59.304;18.294;2022-12-05T05:12:59;1.33;;;0.68;;
76310;SDS011;65120;59.304;18.294;2022-12-05T05:15:26;1.83;;;0.80;;
76310;SDS011;65120;59.304;18.294;2022-12-05T05:17:53;1.83;;;0.60;;
76310;SDS011;65120;59.304;18.294;2022-12-05T05:20:20;1.67;;;1.00;;
76310;SDS011;65120;59.304;18.294;2022-12-05T05:22:51;1.55;;;0.90;;
76310;SDS011;65120;59.304;18.294;2022-12-05T05:25:18;2.42;;;0.90;;
76310;SDS011;65120;59.304;18.294;2022-12-05T05:27:49;1.23;;;0.60;;
76310;SDS011;65120;59.304;18.294;2022-12-05T05:30:16;1.48;;;0.80;;
76310;SDS011;65120;59.304;18.294;2022-12-05T05:32:44;1.48;;;0.82;;
76310;SDS011;65120;59.304;18.294;2022-12-05T05:35:11;1.70;;;0.70;;
76310;SDS011;65120;59.304;18.294;2022-12-05T05:37:38;1.60;;;0.77;;
76310;SDS011;65120;59.304;18.294;2022-12-05T05:40:09;1.65;;;0.98;;
76310;SDS011;65120;59.304;18.294;2022-12-05T05:42:40;2.03;;;0.82;;
76310;SDS011;65120;59.304;18.294;2022-12-05T05:45:08;2.38;;;1.13;;
76310;SDS011;65120;59.304;18.294;2022-12-05T05:47:36;1.90;;;0.80;;
76310;SDS011;65120;59.304;18.294;2022-12-05T05:50:03;2.45;;;1.23;;
76310;SDS011;65120;59.304;18.294;2022-12-05T05:52:31;2.15;;;1.02;;
76310;SDS011;65120;59.304;18.294;2022-12-05T05:54:59;1.38;;;0.80;;
76310;SDS011;65120;59.304;18.294;2022-12-05T05:57:27;2.60;;;0.98;;
76310;SDS011;65120;59.304;18.294;2022-12-05T05:59:53;1.98;;;1.30;;
76310;SDS011;65120;59.304;18.294;2022-12-05T06:02:20;0.90;;;0.60;;
76310;SDS011;65120;59.304;18.294;2022-12-05T06:04:47;1.45;;;0.60;;
76310;SDS011;65120;59.304;18.294;2022-12-05T06:07:14;1.48;;;0.75;;
76310;SDS011;65120;59.304;18.294;2022-12-05T06:09:41;1.92;;;0.80;;
76310;SDS011;65120;59.304;18.294;2022-12-05T06:12:07;3.92;;;0.90;;
76310;SDS011;65120;59.304;18.294;2022-12-05T06:14:36;1.00;;;0.70;;
76310;SDS011;65120;59.304;18.294;2022-12-05T06:17:02;1.67;;;0.80;;
76310;SDS011;65120;59.304;18.294;2022-12-05T06:19:29;2.67;;;1.20;;
76310;SDS011;65120;59.304;18.294;2022-12-05T06:21:56;1.88;;;1.10;;
76310;SDS011;65120;59.304;18.294;2022-12-05T06:24:22;1.80;;;1.05;;
76310;SDS011;65120;59.304;18.294;2022-12-05T06:26:49;2.28;;;0.90;;
76310;SDS011;65120;59.304;18.294;2022-12-05T06:29:16;1.83;;;0.95;;
76310;SDS011;65120;59.304;18.294;2022-12-05T06:31:44;2.75;;;1.17;;
76310;SDS011;65120;59.304;18.294;2022-12-05T06:34:11;1.75;;;0.88;;
76310;SDS011;65120;59.304;18.294;2022-12-05T06:36:38;2.78;;;1.55;;
76310;SDS011;65120;59.304;18.294;2022-12-05T06:39:04;2.20;;;1.42;;
76310;SDS011;65120;59.304;18.294;2022-12-05T06:41:31;2.72;;;1.50;;
76310;SDS011;65120;59.304;18.294;2022-12-05T06:43:58;2.17;;;0.95;;
76310;SDS011;65120;59.304;18.294;2022-12-05T06:46:25;3.60;;;1.30;;
76310;SDS011;65120;59.304;18.294;2022-12-05T06:48:54;2.83;;;1.40;;
76310;SDS011;65120;59.304;18.294;2022-12-05T06:51:22;3.92;;;1.13;;
76310;SDS011;65120;59.304;18.294;2022-12-05T06:53:49;2.20;;;0.98;;
76310;SDS011;65120;59.304;18.294;2022-12-05T06:56:17;3.80;;;1.15;;
76310;SDS011;65120;59.304;18.294;2022-12-05T06:58:46;3.08;;;1.20;;
76310;SDS011;65120;59.304;18.294;2022-12-05T07:01:15;2.78;;;0.90;;
76310;SDS011;65120;59.304;18.294;2022-12-05T07:04:02;2.55;;;1.15;;
76310;SDS011;65120;59.304;18.294;2022-12-05T07:06:31;3.72;;;2.97;;
76310;SDS011;65120;59.304;18.294;2022-12-05T07:08:58;3.03;;;1.10;;
76310;SDS011;65120;59.304;18.294;2022-12-05T07:11:25;4.57;;;1.70;;
76310;SDS011;65120;59.304;18.294;2022-12-05T07:13:52;3.95;;;1.90;;
76310;SDS011;65120;59.304;18.294;2022-12-05T07:16:19;4.50;;;2.13;;
76310;SDS011;65120;59.304;18.294;2022-12-05T07:18:46;3.38;;;1.85;;
76310;SDS011;65120;59.304;18.294;2022-12-05T07:21:14;2.70;;;1.70;;
76310;SDS011;65120;59.304;18.294;2022-12-05T07:23:42;2.90;;;1.50;;
76310;SDS011;65120;59.304;18.294;2022-12-05T07:26:11;3.42;;;1.25;;
76310;SDS011;65120;59.304;18.294;2022-12-05T07:28:39;2.22;;;1.23;;
76310;SDS011;65120;59.304;18.294;2022-12-05T07:31:07;1.92;;;1.00;;
76310;SDS011;65120;59.304;18.294;2022-12-05T07:33:35;3.20;;;1.25;;
76310;SDS011;65120;59.304;18.294;2022-12-05T07:36:03;5.32;;;1.42;;
76310;SDS011;65120;59.304;18.294;2022-12-05T07:38:32;3.13;;;1.20;;
76310;SDS011;65120;59.304;18.294;2022-12-05T07:41:02;2.83;;;1.40;;
76310;SDS011;65120;59.304;18.294;2022-12-05T07:43:29;2.40;;;1.25;;
76310;SDS011;65120;59.304;18.294;2022-12-05T07:45:59;2.10;;;1.02;;
76310;SDS011;65120;59.304;18.294;2022-12-05T07:48:27;2.20;;;1.10;;
76310;SDS011;65120;59.304;18.294;2022-12-05T07:50:53;2.00;;;0.98;;
76310;SDS011;65120;59.304;18.294;2022-12-05T07:53:23;2.28;;;1.40;;
76310;SDS011;65120;59.304;18.294;2022-12-05T07:55:52;3.25;;;0.95;;
76310;SDS011;65120;59.304;18.294;2022-12-05T07:58:18;4.55;;;1.55;;
76310;SDS011;65120;59.304;18.294;2022-12-05T08:00:45;5.78;;;1.77;;
76310;SDS011;65120;59.304;18.294;2022-12-05T08:03:12;4.28;;;1.33;;
76310;SDS011;65120;59.304;18.294;2022-12-05T08:05:39;4.25;;;1.10;;
76310;SDS011;65120;59.304;18.294;2022-12-05T08:08:05;2.38;;;0.90;;
76310;SDS011;65120;59.304;18.294;2022-12-05T08:13:01;3.13;;;1.17;;
76310;SDS011;65120;59.304;18.294;2022-12-05T08:15:27;3.45;;;1.27;;
76310;SDS011;65120;59.304;18.294;2022-12-05T08:17:54;5.05;;;1.65;;
76310;SDS011;65120;59.304;18.294;2022-12-05T08:20:21;1.95;;;1.08;;
76310;SDS011;65120;59.304;18.294;2022-12-05T08:22:50;3.17;;;1.13;;
76310;SDS011;65120;59.304;18.294;2022-12-05T08:25:17;2.15;;;1.02;;
76310;SDS011;65120;59.304;18.294;2022-12-05T08:27:44;1.50;;;0.70;;
76310;SDS011;65120;59.304;18.294;2022-12-05T08:30:12;1.95;;;1.15;;
76310;SDS011;65120;59.304;18.294;2022-12-05T08:32:39;2.70;;;1.20;;
76310;SDS011;65120;59.304;18.294;2022-12-05T08:35:06;2.95;;;1.20;;
76310;SDS011;65120;59.304;18.294;2022-12-05T08:37:33;1.42;;;0.77;;
76310;SDS011;65120;59.304;18.294;2022-12-05T08:40:00;1.88;;;1.27;;
76310;SDS011;65120;59.304;18.294;2022-12-05T08:42:27;2.60;;;1.02;;
76310;SDS011;65120;59.304;18.294;2022-12-05T08:44:53;2.50;;;1.15;;
76310;SDS011;65120;59.304;18.294;2022-12-05T08:47:22;5.57;;;1.70;;
76310;SDS011;65120;59.304;18.294;2022-12-05T08:49:48;1.42;;;0.90;;
76310;SDS011;65120;59.304;18.294;2022-12-05T08:52:15;2.35;;;1.27;;
76310;SDS011;65120;59.304;18.294;2022-12-05T08:54:42;2.15;;;1.40;;
76310;SDS011;65120;59.304;18.294;2022-12-05T08:57:08;3.75;;;1.85;;
76310;SDS011;65120;59.304;18.294;2022-12-05T08:59:35;5.40;;;2.17;;
76310;SDS011;65120;59.304;18.294;2022-12-05T09:02:02;3.97;;;1.30;;
76310;SDS011;65120;59.304;18.294;2022-12-05T09:04:30;3.65;;;1.77;;
76310;SDS011;65120;59.304;18.294;2022-12-05T09:06:57;4.25;;;1.75;;
76310;SDS011;65120;59.304;18.294;2022-12-05T09:09:27;2.72;;;1.77;;
76310;SDS011;65120;59.304;18.294;2022-12-05T09:11:56;4.18;;;1.98;;
76310;SDS011;65120;59.304;18.294;2022-12-05T09:14:24;5.18;;;1.67;;
76310;SDS011;65120;59.304;18.294;2022-12-05T09:16:56;4.93;;;1.55;;
76310;SDS011;65120;59.304;18.294;2022-12-05T09:19:24;4.55;;;1.90;;
76310;SDS011;65120;59.304;18.294;2022-12-05T09:21:53;3.45;;;2.42;;
76310;SDS011;65120;59.304;18.294;2022-12-05T09:24:19;5.90;;;3.47;;
76310;SDS011;65120;59.304;18.294;2022-12-05T09:26:46;6.10;;;2.90;;
76310;SDS011;65120;59.304;18.294;2022-12-05T09:29:13;5.18;;;3.53;;
76310;SDS011;65120;59.304;18.294;2022-12-05T09:31:40;6.28;;;2.25;;
76310;SDS011;65120;59.304;18.294;2022-12-05T09:34:07;4.80;;;2.67;;
76310;SDS011;65120;59.304;18.294;2022-12-05T09:36:34;6.88;;;3.20;;
76310;SDS011;65120;59.304;18.294;2022-12-05T09:39:03;4.05;;;1.85;;
76310;SDS011;65120;59.304;18.294;2022-12-05T09:41:40;5.45;;;1.90;;
76310;SDS011;65120;59.304;18.294;2022-12-05T09:44:33;3.38;;;2.28;;
76310;SDS011;65120;59.304;18.294;2022-12-05T09:47:10;3.95;;;2.10;;
76310;SDS011;65120;59.304;18.294;2022-12-05T09:49:45;3.08;;;1.80;;
76310;SDS011;65120;59.304;18.294;2022-12-05T09:52:16;4.70;;;2.45;;
76310;SDS011;65120;59.304;18.294;2022-12-05T09:54:51;4.13;;;1.77;;
76310;SDS011;65120;59.304;18.294;2022-12-05T09:57:19;4.15;;;2.05;;
76310;SDS011;65120;59.304;18.294;2022-12-05T09:59:54;3.95;;;1.88;;
76310;SDS011;65120;59.304;18.294;2022-12-05T10:02:23;3.97;;;2.17;;
76310;SDS011;65120;59.304;18.294;2022-12-05T10:04:57;4.53;;;1.88;;
76310;SDS011;65120;59.304;18.294;2022-12-05T10:07:30;4.68;;;1.77;;
76310;SDS011;65120;59.304;18.294;2022-12-05T10:10:17;3.38;;;1.67;;
76310;SDS011;65120;59.304;18.294;2022-12-05T10:12:53;4.82;;;1.77;;
76310;SDS011;65120;59.304;18.294;2022-12-05T10:15:41;3.50;;;2.17;;
76310;SDS011;65120;59.304;18.294;2022-12-05T10:18:09;12.88;;;1.88;;
76310;SDS011;65120;59.304;18.294;2022-12-05T10:20:49;3.15;;;1.55;;
76310;SDS011;65120;59.304;18.294;2022-12-05T10:23:19;3.28;;;1.83;;
76310;SDS011;65120;59.304;18.294;2022-12-05T10:25:50;4.10;;;2.25;;
76310;SDS011;65120;59.304;18.294;2022-12-05T10:28:26;5.82;;;2.47;;
76310;SDS011;65120;59.304;18.294;2022-12-05T10:30:58;8.70;;;2.88;;
76310;SDS011;65120;59.304;18.294;2022-12-05T10:33:33;6.63;;;2.03;;
76310;SDS011;65120;59.304;18.294;2022-12-05T10:36:08;4.63;;;2.42;;
76310;SDS011;65120;59.304;18.294;2022-12-05T10:38:36;9.65;;;2.60;;
76310;SDS011;65120;59.304;18.294;2022-12-05T10:41:05;3.97;;;1.70;;
76310;SDS011;65120;59.304;18.294;2022-12-05T10:43:34;5.28;;;2.10;;
76310;SDS011;65120;59.304;18.294;2022-12-05T10:46:02;3.53;;;2.20;;
76310;SDS011;65120;59.304;18.294;2022-12-05T10:48:31;7.10;;;2.40;;
76310;SDS011;65120;59.304;18.294;2022-12-05T10:51:02;6.43;;;3.53;;
76310;SDS011;65120;59.304;18.294;2022-12-05T10:53:30;6.72;;;3.67;;
76310;SDS011;65120;59.304;18.294;2022-12-05T10:56:08;4.60;;;2.45;;
76310;SDS011;65120;59.304;18.294;2022-12-05T10:59:03;3.67;;;1.92;;
76310;SDS011;65120;59.304;18.294;2022-12-05T11:01:31;3.42;;;1.98;;
76310;SDS011;65120;59.304;18.294;2022-12-05T11:03:59;7.72;;;2.28;;
76310;SDS011;65120;59.304;18.294;2022-12-05T11:06:28;6.43;;;2.13;;
76310;SDS011;65120;59.304;18.294;2022-12-05T11:08:57;3.65;;;1.63;;
76310;SDS011;65120;59.304;18.294;2022-12-05T11:11:29;4.00;;;1.95;;
76310;SDS011;65120;59.304;18.294;2022-12-05T11:13:59;2.85;;;1.67;;
76310;SDS011;65120;59.304;18.294;2022-12-05T11:16:28;4.18;;;2.03;;
76310;SDS011;65120;59.304;18.294;2022-12-05T11:18:59;5.97;;;2.33;;
76310;SDS011;65120;59.304;18.294;2022-12-05T11:21:45;5.43;;;3.10;;
76310;SDS011;65120;59.304;18.294;2022-12-05T11:24:19;5.63;;;2.13;;
76310;SDS011;65120;59.304;18.294;2022-12-05T11:26:48;10.02;;;3.80;;
76310;SDS011;65120;59.304;18.294;2022-12-05T11:31:59;7.03;;;3.58;;
76310;SDS011;65120;59.304;18.294;2022-12-05T11:34:26;6.38;;;3.67;;
76310;SDS011;65120;59.304;18.294;2022-12-05T11:37:02;18.10;;;6.55;;
76310;SDS011;65120;59.304;18.294;2022-12-05T11:39:35;39.20;;;12.23;;
76310;SDS011;65120;59.304;18.294;2022-12-05T11:42:07;20.85;;;7.85;;
76310;SDS011;65120;59.304;18.294;2022-12-05T11:44:53;10.57;;;4.80;;
76310;SDS011;65120;59.304;18.294;2022-12-05T11:47:45;5.32;;;2.33;;
76310;SDS011;65120;59.304;18.294;2022-12-05T11:50:27;5.38;;;3.92;;
76310;SDS011;65120;59.304;18.294;2022-12-05T11:53:10;5.55;;;2.10;;
76310;SDS011;65120;59.304;18.294;2022-12-05T11:55:49;4.07;;;2.28;;
76310;SDS011;65120;59.304;18.294;2022-12-05T11:58:35;5.43;;;2.40;;
76310;SDS011;65120;59.304;18.294;2022-12-05T12:01:10;5.22;;;2.40;;
76310;SDS011;65120;59.304;18.294;2022-12-05T12:03:52;4.45;;;2.17;;
76310;SDS011;65120;59.304;18.294;2022-12-05T12:06:47;4.05;;;1.75;;
76310;SDS011;65120;59.304;18.294;2022-12-05T12:09:31;5.07;;;1.65;;
76310;SDS011;65120;59.304;18.294;2022-12-05T12:12:06;4.70;;;1.90;;
76310;SDS011;65120;59.304;18.294;2022-12-05T12:14:45;3.97;;;2.38;;
76310;SDS011;65120;59.304;18.294;2022-12-05T12:17:20;2.97;;;1.73;;
76310;SDS011;65120;59.304;18.294;2022-12-05T12:19:58;6.47;;;1.98;;
76310;SDS011;65120;59.304;18.294;2022-12-05T12:22:44;4.68;;;2.08;;
76310;SDS011;65120;59.304;18.294;2022-12-05T12:25:26;3.72;;;1.83;;
76310;SDS011;65120;59.304;18.294;2022-12-05T12:28:07;5.82;;;1.85;;
76310;SDS011;65120;59.304;18.294;2022-12-05T12:30:52;3.40;;;1.55;;
76310;SDS011;65120;59.304;18.294;2022-12-05T12:33:29;3.63;;;2.10;;
76310;SDS011;65120;59.304;18.294;2022-12-05T12:36:01;5.40;;;2.03;;
76310;SDS011;65120;59.304;18.294;2022-12-05T12:38:52;3.95;;;1.88;;
76310;SDS011;65120;59.304;18.294;2022-12-05T12:41:40;2.63;;;1.33;;
76310;SDS011;65120;59.304;18.294;2022-12-05T12:47:30;5.45;;;1.52;;
76310;SDS011;65120;59.304;18.294;2022-12-05T12:50:09;6.10;;;1.85;;
76310;SDS011;65120;59.304;18.294;2022-12-05T12:52:46;5.40;;;2.13;;
76310;SDS011;65120;59.304;18.294;2022-12-05T12:55:21;8.07;;;2.35;;
76310;SDS011;65120;59.304;18.294;2022-12-05T12:57:59;3.67;;;1.80;;
76310;SDS011;65120;59.304;18.294;2022-12-05T13:00:37;5.15;;;2.65;;
76310;SDS011;65120;59.304;18.294;2022-12-05T13:03:19;2.28;;;1.35;;
76310;SDS011;65120;59.304;18.294;2022-12-05T13:05:49;3.42;;;2.38;;
76310;SDS011;65120;59.304;18.294;2022-12-05T13:08:20;5.78;;;2.83;;
76310;SDS011;65120;59.304;18.294;2022-12-05T13:10:51;6.28;;;2.90;;
76310;SDS011;65120;59.304;18.294;2022-12-05T13:13:20;4.95;;;1.90;;
76310;SDS011;65120;59.304;18.294;2022-12-05T13:15:51;6.82;;;2.35;;
76310;SDS011;65120;59.304;18.294;2022-12-05T13:18:23;2.58;;;1.77;;
76310;SDS011;65120;59.304;18.294;2022-12-05T13:20:51;7.25;;;2.58;;
76310;SDS011;65120;59.304;18.294;2022-12-05T13:23:20;4.43;;;2.35;;
76310;SDS011;65120;59.304;18.294;2022-12-05T13:25:49;6.40;;;2.53;;
76310;SDS011;65120;59.304;18.294;2022-12-05T13:28:22;5.35;;;3.08;;
76310;SDS011;65120;59.304;18.294;2022-12-05T13:30:52;6.45;;;2.53;;
76310;SDS011;65120;59.304;18.294;2022-12-05T13:33:28;6.40;;;2.65;;
76310;SDS011;65120;59.304;18.294;2022-12-05T13:36:02;3.70;;;2.03;;
76310;SDS011;65120;59.304;18.294;2022-12-05T13:38:49;5.00;;;2.40;;
76310;SDS011;65120;59.304;18.294;2022-12-05T13:41:39;3.95;;;2.17;;
76310;SDS011;65120;59.304;18.294;2022-12-05T13:44:28;5.15;;;2.72;;
76310;SDS011;65120;59.304;18.294;2022-12-05T13:46:59;4.00;;;1.67;;
76310;SDS011;65120;59.304;18.294;2022-12-05T13:49:35;6.15;;;2.95;;
76310;SDS011;65120;59.304;18.294;2022-12-05T13:52:11;7.10;;;2.78;;
76310;SDS011;65120;59.304;18.294;2022-12-05T13:54:40;5.80;;;2.35;;
76310;SDS011;65120;59.304;18.294;2022-12-05T14:00:19;2.95;;;1.83;;
76310;SDS011;65120;59.304;18.294;2022-12-05T14:02:57;4.18;;;1.80;;
76310;SDS011;65120;59.304;18.294;2022-12-05T14:11:20;3.10;;;1.83;;
76310;SDS011;65120;59.304;18.294;2022-12-05T14:13:47;3.35;;;1.45;;
76310;SDS011;65120;59.304;18.294;2022-12-05T14:19:12;2.50;;;1.77;;
76310;SDS011;65120;59.304;18.294;2022-12-05T14:21:59;2.65;;;1.80;;
76310;SDS011;65120;59.304;18.294;2022-12-05T14:24:39;3.70;;;2.00;;
76310;SDS011;65120;59.304;18.294;2022-12-05T14:27:14;3.47;;;1.50;;
76310;SDS011;65120;59.304;18.294;2022-12-05T14:29:53;3.78;;;1.63;;
76310;SDS011;65120;59.304;18.294;2022-12-05T14:32:27;3.63;;;1.92;;
76310;SDS011;65120;59.304;18.294;2022-12-05T14:34:57;3.88;;;1.88;;
76310;SDS011;65120;59.304;18.294;2022-12-05T14:37:32;3.97;;;2.00;;
76310;SDS011;65120;59.304;18.294;2022-12-05T14:40:01;5.78;;;1.95;;
76310;SDS011;65120;59.304;18.294;2022-12-05T14:42:41;5.75;;;2.10;;
76310;SDS011;65120;59.304;18.294;2022-12-05T14:45:28;3.30;;;1.45;;
76310;SDS011;65120;59.304;18.294;2022-12-05T14:47:59;4.68;;;2.53;;
76310;SDS011;65120;59.304;18.294;2022-12-05T14:50:35;5.28;;;3.00;;
76310;SDS011;65120;59.304;18.294;2022-12-05T14:53:17;2.22;;;1.58;;
76310;SDS011;65120;59.304;18.294;2022-12-05T14:55:51;5.05;;;2.35;;
76310;SDS011;65120;59.304;18.294;2022-12-05T14:58:20;3.92;;;2.08;;
76310;SDS011;65120;59.304;18.294;2022-12-05T15:00:57;4.93;;;1.70;;
76310;SDS011;65120;59.304;18.294;2022-12-05T15:03:28;6.15;;;2.78;;
76310;SDS011;65120;59.304;18.294;2022-12-05T15:05:57;7.20;;;2.65;;
76310;SDS011;65120;59.304;18.294;2022-12-05T15:08:29;4.90;;;1.95;;
76310;SDS011;65120;59.304;18.294;2022-12-05T15:11:00;5.82;;;3.03;;
76310;SDS011;65120;59.304;18.294;2022-12-05T15:13:28;5.72;;;2.75;;
76310;SDS011;65120;59.304;18.294;2022-12-05T15:15:57;5.57;;;2.55;;
76310;SDS011;65120;59.304;18.294;2022-12-05T15:18:30;8.25;;;3.50;;
76310;SDS011;65120;59.304;18.294;2022-12-05T15:21:03;5.15;;;2.38;;
76310;SDS011;65120;59.304;18.294;2022-12-05T15:23:42;4.38;;;2.08;;
76310;SDS011;65120;59.304;18.294;2022-12-05T15:26:20;3.85;;;2.03;;